sensor_id;sensor_type;location;lat;lon;timestamp;P1;durP1;ratioP1;P2;durP2;ratioP2
20462;SDS011;10390;53.566;9.980;2023-02-24T00:00:06;7.72;;;4.95;;
20462;SDS011;10390;53.566;9.980;2023-02-24T00:02:51;6.35;;;4.70;;
20462;SDS011;10390;53.566;9.980;2023-02-24T00:05:17;8.77;;;4.60;;
20462;SDS011;10390;53.566;9.980;2023-02-24T00:07:43;7.05;;;4.90;;
20462;SDS011;10390;53.566;9.980;2023-02-24T00:10:09;6.20;;;4.70;;
20462;SDS011;10390;53.566;9.980;2023-02-24T00:12:35;6.82;;;4.97;;
20462;SDS011;10390;53.566;9.980;2023-02-24T00:15:01;7.03;;;4.80;;
20462;SDS011;10390;53.566;9.980;2023-02-24T00:17:27;6.75;;;4.10;;
20462;SDS011;10390;53.566;9.980;2023-02-24T00:19:54;6.70;;;4.20;;
20462;SDS011;10390;53.566;9.980;2023-02-24T00:22:20;5.95;;;4.47;;
20462;SDS011;10390;53.566;9.980;2023-02-24T00:24:46;6.93;;;4.57;;
20462;SDS011;10390;53.566;9.980;2023-02-24T00:27:11;5.85;;;4.72;;
20462;SDS011;10390;53.566;9.980;2023-02-24T00:29:37;6.80;;;4.80;;
20462;SDS011;10390;53.566;9.980;2023-02-24T00:32:04;6.32;;;4.53;;
20462;SDS011;10390;53.566;9.980;2023-02-24T00:34:32;6.50;;;4.28;;
20462;SDS011;10390;53.566;9.980;2023-02-24T00:37:00;6.13;;;4.82;;
20462;SDS011;10390;53.566;9.980;2023-02-24T00:39:27;6.20;;;5.00;;
20462;SDS011;10390;53.566;9.980;2023-02-24T00:41:56;6.45;;;4.80;;
20462;SDS011;10390;53.566;9.980;2023-02-24T00:44:28;7.25;;;5.13;;
20462;SDS011;10390;53.566;9.980;2023-02-24T00:46:57;6.53;;;4.95;;
20462;SDS011;10390;53.566;9.980;2023-02-24T00:49:23;6.25;;;4.60;;
20462;SDS011;10390;53.566;9.980;2023-02-24T00:51:49;5.78;;;4.63;;
20462;SDS011;10390;53.566;9.980;2023-02-24T00:54:18;6.20;;;4.75;;
20462;SDS011;10390;53.566;9.980;2023-02-24T00:56:45;6.80;;;4.70;;
20462;SDS011;10390;53.566;9.980;2023-02-24T00:59:13;6.18;;;4.63;;
20462;SDS011;10390;53.566;9.980;2023-02-24T01:01:40;6.15;;;4.80;;
20462;SDS011;10390;53.566;9.980;2023-02-24T01:04:06;6.95;;;5.10;;
20462;SDS011;10390;53.566;9.980;2023-02-24T01:06:39;7.03;;;4.85;;
20462;SDS011;10390;53.566;9.980;2023-02-24T01:09:13;6.32;;;4.57;;
20462;SDS011;10390;53.566;9.980;2023-02-24T01:11:42;6.03;;;4.68;;
20462;SDS011;10390;53.566;9.980;2023-02-24T01:14:28;6.55;;;4.75;;
20462;SDS011;10390;53.566;9.980;2023-02-24T01:16:56;6.68;;;5.13;;
20462;SDS011;10390;53.566;9.980;2023-02-24T01:19:22;6.38;;;4.60;;
20462;SDS011;10390;53.566;9.980;2023-02-24T01:21:56;5.40;;;4.40;;
20462;SDS011;10390;53.566;9.980;2023-02-24T01:24:23;6.80;;;5.10;;
20462;SDS011;10390;53.566;9.980;2023-02-24T01:26:49;7.32;;;4.63;;
20462;SDS011;10390;53.566;9.980;2023-02-24T01:29:15;6.82;;;4.65;;
20462;SDS011;10390;53.566;9.980;2023-02-24T01:31:41;5.95;;;3.97;;
20462;SDS011;10390;53.566;9.980;2023-02-24T01:34:07;6.40;;;4.10;;
20462;SDS011;10390;53.566;9.980;2023-02-24T01:36:34;6.25;;;4.47;;
20462;SDS011;10390;53.566;9.980;2023-02-24T01:39:01;6.45;;;4.07;;
20462;SDS011;10390;53.566;9.980;2023-02-24T01:41:29;6.10;;;4.05;;
20462;SDS011;10390;53.566;9.980;2023-02-24T01:43:59;5.68;;;4.07;;
20462;SDS011;10390;53.566;9.980;2023-02-24T01:46:30;5.88;;;4.07;;
20462;SDS011;10390;53.566;9.980;2023-02-24T01:49:40;7.28;;;4.10;;
20462;SDS011;10390;53.566;9.980;2023-02-24T01:52:04;5.53;;;4.28;;
20462;SDS011;10390;53.566;9.980;2023-02-24T01:54:34;5.60;;;4.20;;
20462;SDS011;10390;53.566;9.980;2023-02-24T01:57:08;5.40;;;4.10;;
20462;SDS011;10390;53.566;9.980;2023-02-24T01:59:36;5.45;;;4.15;;
20462;SDS011;10390;53.566;9.980;2023-02-24T02:02:02;5.88;;;4.30;;
20462;SDS011;10390;53.566;9.980;2023-02-24T02:04:45;6.18;;;4.72;;
20462;SDS011;10390;53.566;9.980;2023-02-24T02:07:12;6.07;;;4.50;;
20462;SDS011;10390;53.566;9.980;2023-02-24T02:09:44;5.88;;;4.43;;
20462;SDS011;10390;53.566;9.980;2023-02-24T02:12:11;6.28;;;4.50;;
20462;SDS011;10390;53.566;9.980;2023-02-24T02:14:37;6.03;;;4.65;;
20462;SDS011;10390;53.566;9.980;2023-02-24T02:25:38;5.88;;;4.60;;
20462;SDS011;10390;53.566;9.980;2023-02-24T02:31:17;7.55;;;4.65;;
20462;SDS011;10390;53.566;9.980;2023-02-24T02:48:09;6.55;;;4.18;;
20462;SDS011;10390;53.566;9.980;2023-02-24T02:50:49;6.03;;;4.30;;
20462;SDS011;10390;53.566;9.980;2023-02-24T02:53:23;5.57;;;4.35;;
20462;SDS011;10390;53.566;9.980;2023-02-24T02:56:09;5.93;;;3.90;;
20462;SDS011;10390;53.566;9.980;2023-02-24T02:58:41;5.53;;;4.20;;
20462;SDS011;10390;53.566;9.980;2023-02-24T03:01:13;5.55;;;4.32;;
20462;SDS011;10390;53.566;9.980;2023-02-24T03:03:42;5.00;;;4.30;;
20462;SDS011;10390;53.566;9.980;2023-02-24T03:06:26;5.97;;;4.35;;
20462;SDS011;10390;53.566;9.980;2023-02-24T03:08:59;6.03;;;3.80;;
20462;SDS011;10390;53.566;9.980;2023-02-24T03:11:39;5.22;;;4.30;;
20462;SDS011;10390;53.566;9.980;2023-02-24T03:14:12;6.05;;;4.50;;
20462;SDS011;10390;53.566;9.980;2023-02-24T03:16:42;5.18;;;4.07;;
20462;SDS011;10390;53.566;9.980;2023-02-24T03:19:13;5.70;;;4.32;;
20462;SDS011;10390;53.566;9.980;2023-02-24T03:21:44;5.68;;;4.22;;
20462;SDS011;10390;53.566;9.980;2023-02-24T03:24:15;5.80;;;4.32;;
20462;SDS011;10390;53.566;9.980;2023-02-24T03:26:56;6.60;;;4.03;;
20462;SDS011;10390;53.566;9.980;2023-02-24T03:29:45;5.63;;;4.50;;
20462;SDS011;10390;53.566;9.980;2023-02-24T03:32:19;5.28;;;4.43;;
20462;SDS011;10390;53.566;9.980;2023-02-24T03:35:01;7.05;;;4.63;;
20462;SDS011;10390;53.566;9.980;2023-02-24T03:37:28;6.50;;;4.82;;
20462;SDS011;10390;53.566;9.980;2023-02-24T03:39:56;6.55;;;4.35;;
20462;SDS011;10390;53.566;9.980;2023-02-24T03:42:24;6.13;;;4.15;;
20462;SDS011;10390;53.566;9.980;2023-02-24T03:44:54;5.18;;;3.90;;
20462;SDS011;10390;53.566;9.980;2023-02-24T03:47:22;6.90;;;4.38;;
20462;SDS011;10390;53.566;9.980;2023-02-24T03:49:48;5.28;;;4.53;;
20462;SDS011;10390;53.566;9.980;2023-02-24T03:52:18;5.40;;;4.22;;
20462;SDS011;10390;53.566;9.980;2023-02-24T04:11:57;6.22;;;5.07;;
20462;SDS011;10390;53.566;9.980;2023-02-24T04:17:55;5.20;;;4.28;;
20462;SDS011;10390;53.566;9.980;2023-02-24T04:20:25;5.03;;;3.72;;
20462;SDS011;10390;53.566;9.980;2023-02-24T04:23:04;5.65;;;4.20;;
20462;SDS011;10390;53.566;9.980;2023-02-24T04:25:35;5.70;;;4.43;;
20462;SDS011;10390;53.566;9.980;2023-02-24T04:28:03;6.78;;;4.45;;
20462;SDS011;10390;53.566;9.980;2023-02-24T04:30:35;4.95;;;4.30;;
20462;SDS011;10390;53.566;9.980;2023-02-24T04:33:05;5.18;;;4.10;;
20462;SDS011;10390;53.566;9.980;2023-02-24T04:35:31;4.90;;;3.47;;
20462;SDS011;10390;53.566;9.980;2023-02-24T04:37:58;5.45;;;3.92;;
20462;SDS011;10390;53.566;9.980;2023-02-24T04:40:24;5.80;;;4.50;;
20462;SDS011;10390;53.566;9.980;2023-02-24T04:42:51;5.47;;;3.90;;
20462;SDS011;10390;53.566;9.980;2023-02-24T04:47:49;6.55;;;4.50;;
20462;SDS011;10390;53.566;9.980;2023-02-24T04:50:17;6.10;;;4.80;;
20462;SDS011;10390;53.566;9.980;2023-02-24T04:52:51;6.75;;;5.00;;
20462;SDS011;10390;53.566;9.980;2023-02-24T04:55:19;6.20;;;4.70;;
20462;SDS011;10390;53.566;9.980;2023-02-24T04:57:46;5.80;;;4.60;;
20462;SDS011;10390;53.566;9.980;2023-02-24T05:00:13;6.38;;;4.82;;
20462;SDS011;10390;53.566;9.980;2023-02-24T05:02:47;5.72;;;4.68;;
20462;SDS011;10390;53.566;9.980;2023-02-24T05:05:14;6.32;;;4.70;;
20462;SDS011;10390;53.566;9.980;2023-02-24T05:07:53;6.97;;;4.75;;
20462;SDS011;10390;53.566;9.980;2023-02-24T05:10:21;5.95;;;4.50;;
20462;SDS011;10390;53.566;9.980;2023-02-24T05:12:52;6.80;;;5.05;;
20462;SDS011;10390;53.566;9.980;2023-02-24T05:15:22;6.65;;;5.28;;
20462;SDS011;10390;53.566;9.980;2023-02-24T05:17:55;5.60;;;5.00;;
20462;SDS011;10390;53.566;9.980;2023-02-24T05:20:38;5.65;;;5.07;;
20462;SDS011;10390;53.566;9.980;2023-02-24T05:23:24;5.78;;;4.75;;
20462;SDS011;10390;53.566;9.980;2023-02-24T05:26:01;5.93;;;4.43;;
20462;SDS011;10390;53.566;9.980;2023-02-24T05:28:33;5.53;;;4.72;;
20462;SDS011;10390;53.566;9.980;2023-02-24T05:31:04;5.55;;;4.38;;
20462;SDS011;10390;53.566;9.980;2023-02-24T05:33:35;5.55;;;4.70;;
20462;SDS011;10390;53.566;9.980;2023-02-24T05:36:05;5.90;;;4.88;;
20462;SDS011;10390;53.566;9.980;2023-02-24T05:38:33;5.85;;;4.30;;
20462;SDS011;10390;53.566;9.980;2023-02-24T05:41:08;4.60;;;3.92;;
20462;SDS011;10390;53.566;9.980;2023-02-24T05:43:44;5.07;;;3.88;;
20462;SDS011;10390;53.566;9.980;2023-02-24T05:46:13;6.50;;;4.60;;
20462;SDS011;10390;53.566;9.980;2023-02-24T05:48:39;5.40;;;4.07;;
20462;SDS011;10390;53.566;9.980;2023-02-24T05:51:05;5.55;;;4.07;;
20462;SDS011;10390;53.566;9.980;2023-02-24T05:53:33;5.80;;;4.32;;
20462;SDS011;10390;53.566;9.980;2023-02-24T05:56:00;7.00;;;4.40;;
20462;SDS011;10390;53.566;9.980;2023-02-24T05:58:26;5.53;;;4.40;;
20462;SDS011;10390;53.566;9.980;2023-02-24T06:00:53;5.10;;;4.30;;
20462;SDS011;10390;53.566;9.980;2023-02-24T06:03:19;7.63;;;5.60;;
20462;SDS011;10390;53.566;9.980;2023-02-24T06:05:54;6.35;;;5.47;;
20462;SDS011;10390;53.566;9.980;2023-02-24T06:08:23;6.75;;;4.78;;
20462;SDS011;10390;53.566;9.980;2023-02-24T06:10:50;6.97;;;5.03;;
20462;SDS011;10390;53.566;9.980;2023-02-24T06:13:15;6.32;;;5.03;;
20462;SDS011;10390;53.566;9.980;2023-02-24T06:15:41;6.15;;;4.50;;
20462;SDS011;10390;53.566;9.980;2023-02-24T06:18:14;7.47;;;4.72;;
20462;SDS011;10390;53.566;9.980;2023-02-24T06:20:41;5.88;;;3.80;;
20462;SDS011;10390;53.566;9.980;2023-02-24T06:23:10;7.63;;;4.30;;
20462;SDS011;10390;53.566;9.980;2023-02-24T06:25:35;7.85;;;4.55;;
20462;SDS011;10390;53.566;9.980;2023-02-24T06:28:03;5.55;;;4.03;;
20462;SDS011;10390;53.566;9.980;2023-02-24T06:30:30;7.05;;;4.30;;
20462;SDS011;10390;53.566;9.980;2023-02-24T06:32:56;7.38;;;3.92;;
20462;SDS011;10390;53.566;9.980;2023-02-24T06:35:22;8.70;;;4.18;;
20462;SDS011;10390;53.566;9.980;2023-02-24T06:37:47;6.40;;;3.80;;
20462;SDS011;10390;53.566;9.980;2023-02-24T06:40:14;8.63;;;3.58;;
20462;SDS011;10390;53.566;9.980;2023-02-24T06:42:43;7.38;;;3.80;;
20462;SDS011;10390;53.566;9.980;2023-02-24T06:45:10;7.25;;;3.90;;
20462;SDS011;10390;53.566;9.980;2023-02-24T06:47:36;5.75;;;3.60;;
20462;SDS011;10390;53.566;9.980;2023-02-24T06:50:02;7.07;;;4.03;;
20462;SDS011;10390;53.566;9.980;2023-02-24T06:52:30;8.32;;;3.83;;
20462;SDS011;10390;53.566;9.980;2023-02-24T06:54:56;7.10;;;3.92;;
20462;SDS011;10390;53.566;9.980;2023-02-24T06:57:22;5.35;;;3.88;;
20462;SDS011;10390;53.566;9.980;2023-02-24T06:59:47;6.65;;;3.70;;
20462;SDS011;10390;53.566;9.980;2023-02-24T07:02:13;6.22;;;3.78;;
20462;SDS011;10390;53.566;9.980;2023-02-24T07:04:41;5.65;;;3.60;;
20462;SDS011;10390;53.566;9.980;2023-02-24T07:07:10;5.55;;;4.00;;
20462;SDS011;10390;53.566;9.980;2023-02-24T07:09:38;5.00;;;3.47;;
20462;SDS011;10390;53.566;9.980;2023-02-24T07:12:06;5.43;;;3.88;;
20462;SDS011;10390;53.566;9.980;2023-02-24T07:14:32;5.20;;;3.35;;
20462;SDS011;10390;53.566;9.980;2023-02-24T07:16:58;5.32;;;3.83;;
20462;SDS011;10390;53.566;9.980;2023-02-24T07:19:25;5.40;;;4.05;;
20462;SDS011;10390;53.566;9.980;2023-02-24T07:21:56;6.32;;;4.43;;
20462;SDS011;10390;53.566;9.980;2023-02-24T07:24:24;6.47;;;4.10;;
20462;SDS011;10390;53.566;9.980;2023-02-24T07:27:21;7.93;;;4.10;;
20462;SDS011;10390;53.566;9.980;2023-02-24T07:29:46;5.68;;;4.00;;
20462;SDS011;10390;53.566;9.980;2023-02-24T07:32:13;6.35;;;5.00;;
20462;SDS011;10390;53.566;9.980;2023-02-24T07:34:39;5.13;;;4.15;;
20462;SDS011;10390;53.566;9.980;2023-02-24T07:37:05;6.90;;;3.60;;
20462;SDS011;10390;53.566;9.980;2023-02-24T07:39:32;6.07;;;3.72;;
20462;SDS011;10390;53.566;9.980;2023-02-24T07:41:58;7.28;;;3.60;;
20462;SDS011;10390;53.566;9.980;2023-02-24T07:44:24;7.72;;;4.00;;
20462;SDS011;10390;53.566;9.980;2023-02-24T07:46:50;5.28;;;3.50;;
20462;SDS011;10390;53.566;9.980;2023-02-24T07:49:17;5.72;;;3.42;;
20462;SDS011;10390;53.566;9.980;2023-02-24T07:51:45;5.13;;;3.60;;
20462;SDS011;10390;53.566;9.980;2023-02-24T07:54:16;5.07;;;3.08;;
20462;SDS011;10390;53.566;9.980;2023-02-24T07:56:47;7.50;;;3.70;;
20462;SDS011;10390;53.566;9.980;2023-02-24T07:59:20;6.07;;;3.53;;
20462;SDS011;10390;53.566;9.980;2023-02-24T08:01:51;7.90;;;3.88;;
20462;SDS011;10390;53.566;9.980;2023-02-24T08:04:19;4.80;;;3.17;;
20462;SDS011;10390;53.566;9.980;2023-02-24T08:06:47;5.40;;;3.30;;
20462;SDS011;10390;53.566;9.980;2023-02-24T08:09:19;5.80;;;3.40;;
20462;SDS011;10390;53.566;9.980;2023-02-24T08:12:07;4.80;;;3.42;;
20462;SDS011;10390;53.566;9.980;2023-02-24T08:14:33;4.65;;;3.70;;
20462;SDS011;10390;53.566;9.980;2023-02-24T08:16:59;4.80;;;3.22;;
20462;SDS011;10390;53.566;9.980;2023-02-24T08:19:27;4.45;;;3.33;;
20462;SDS011;10390;53.566;9.980;2023-02-24T08:22:14;5.35;;;3.38;;
20462;SDS011;10390;53.566;9.980;2023-02-24T08:24:47;4.80;;;3.40;;
20462;SDS011;10390;53.566;9.980;2023-02-24T08:27:19;4.18;;;3.20;;
20462;SDS011;10390;53.566;9.980;2023-02-24T08:29:51;5.35;;;3.90;;
20462;SDS011;10390;53.566;9.980;2023-02-24T08:32:28;4.63;;;3.25;;
20462;SDS011;10390;53.566;9.980;2023-02-24T08:35:04;5.40;;;3.20;;
20462;SDS011;10390;53.566;9.980;2023-02-24T08:37:39;4.45;;;3.25;;
20462;SDS011;10390;53.566;9.980;2023-02-24T08:40:11;5.13;;;3.70;;
20462;SDS011;10390;53.566;9.980;2023-02-24T08:43:13;4.88;;;3.08;;
20462;SDS011;10390;53.566;9.980;2023-02-24T08:46:12;5.40;;;3.20;;
20462;SDS011;10390;53.566;9.980;2023-02-24T08:48:50;5.57;;;3.75;;
20462;SDS011;10390;53.566;9.980;2023-02-24T08:54:00;4.70;;;3.10;;
20462;SDS011;10390;53.566;9.980;2023-02-24T08:56:39;4.88;;;3.95;;
20462;SDS011;10390;53.566;9.980;2023-02-24T08:59:13;4.25;;;3.63;;
20462;SDS011;10390;53.566;9.980;2023-02-24T09:01:56;4.95;;;2.97;;
20462;SDS011;10390;53.566;9.980;2023-02-24T09:04:42;4.95;;;3.15;;
20462;SDS011;10390;53.566;9.980;2023-02-24T09:07:11;5.55;;;3.60;;
20462;SDS011;10390;53.566;9.980;2023-02-24T09:09:42;4.60;;;3.25;;
20462;SDS011;10390;53.566;9.980;2023-02-24T09:12:09;4.18;;;3.03;;
20462;SDS011;10390;53.566;9.980;2023-02-24T09:14:45;5.30;;;3.35;;
20462;SDS011;10390;53.566;9.980;2023-02-24T09:17:13;4.82;;;3.05;;
20462;SDS011;10390;53.566;9.980;2023-02-24T09:19:48;4.45;;;3.05;;
20462;SDS011;10390;53.566;9.980;2023-02-24T09:22:24;4.82;;;3.42;;
20462;SDS011;10390;53.566;9.980;2023-02-24T09:25:03;5.05;;;3.17;;
20462;SDS011;10390;53.566;9.980;2023-02-24T09:27:49;5.32;;;3.20;;
20462;SDS011;10390;53.566;9.980;2023-02-24T09:30:28;5.15;;;3.80;;
20462;SDS011;10390;53.566;9.980;2023-02-24T09:33:04;6.28;;;3.50;;
20462;SDS011;10390;53.566;9.980;2023-02-24T09:35:42;5.95;;;3.40;;
20462;SDS011;10390;53.566;9.980;2023-02-24T09:38:11;4.53;;;3.20;;
20462;SDS011;10390;53.566;9.980;2023-02-24T09:40:40;4.43;;;3.17;;
20462;SDS011;10390;53.566;9.980;2023-02-24T09:43:21;4.55;;;3.50;;
20462;SDS011;10390;53.566;9.980;2023-02-24T09:51:12;4.35;;;3.33;;
20462;SDS011;10390;53.566;9.980;2023-02-24T09:53:47;5.03;;;3.42;;
20462;SDS011;10390;53.566;9.980;2023-02-24T09:59:06;6.78;;;3.50;;
20462;SDS011;10390;53.566;9.980;2023-02-24T10:04:36;5.28;;;3.20;;
20462;SDS011;10390;53.566;9.980;2023-02-24T10:07:14;4.85;;;3.10;;
20462;SDS011;10390;53.566;9.980;2023-02-24T10:10:21;6.57;;;3.53;;
20462;SDS011;10390;53.566;9.980;2023-02-24T10:13:14;5.05;;;3.30;;
20462;SDS011;10390;53.566;9.980;2023-02-24T10:15:45;4.82;;;3.50;;
20462;SDS011;10390;53.566;9.980;2023-02-24T10:18:29;6.90;;;3.60;;
20462;SDS011;10390;53.566;9.980;2023-02-24T10:21:43;4.22;;;3.00;;
20462;SDS011;10390;53.566;9.980;2023-02-24T10:27:31;5.70;;;3.50;;
20462;SDS011;10390;53.566;9.980;2023-02-24T10:35:17;6.38;;;4.03;;
20462;SDS011;10390;53.566;9.980;2023-02-24T10:37:44;6.15;;;3.67;;
20462;SDS011;10390;53.566;9.980;2023-02-24T10:40:11;6.55;;;3.60;;
20462;SDS011;10390;53.566;9.980;2023-02-24T10:42:48;6.13;;;3.20;;
20462;SDS011;10390;53.566;9.980;2023-02-24T10:45:21;6.93;;;3.47;;
20462;SDS011;10390;53.566;9.980;2023-02-24T10:47:55;4.85;;;3.15;;
20462;SDS011;10390;53.566;9.980;2023-02-24T10:50:24;6.30;;;4.00;;
20462;SDS011;10390;53.566;9.980;2023-02-24T10:53:04;4.93;;;3.28;;
20462;SDS011;10390;53.566;9.980;2023-02-24T10:58:17;7.15;;;3.40;;
20462;SDS011;10390;53.566;9.980;2023-02-24T11:00:56;4.55;;;3.17;;
20462;SDS011;10390;53.566;9.980;2023-02-24T11:03:45;7.50;;;3.67;;
20462;SDS011;10390;53.566;9.980;2023-02-24T11:06:26;6.10;;;3.42;;
20462;SDS011;10390;53.566;9.980;2023-02-24T11:09:21;5.90;;;3.33;;
20462;SDS011;10390;53.566;9.980;2023-02-24T11:12:13;7.78;;;4.25;;
20462;SDS011;10390;53.566;9.980;2023-02-24T11:15:16;5.93;;;3.70;;
20462;SDS011;10390;53.566;9.980;2023-02-24T11:18:03;4.70;;;3.63;;
20462;SDS011;10390;53.566;9.980;2023-02-24T11:23:05;9.05;;;3.80;;
20462;SDS011;10390;53.566;9.980;2023-02-24T11:25:37;5.57;;;4.18;;
20462;SDS011;10390;53.566;9.980;2023-02-24T11:28:28;5.15;;;3.90;;
20462;SDS011;10390;53.566;9.980;2023-02-24T11:31:08;5.25;;;3.70;;
20462;SDS011;10390;53.566;9.980;2023-02-24T11:33:54;3.97;;;3.25;;
20462;SDS011;10390;53.566;9.980;2023-02-24T11:36:40;4.88;;;3.30;;
20462;SDS011;10390;53.566;9.980;2023-02-24T11:39:37;4.55;;;3.83;;
20462;SDS011;10390;53.566;9.980;2023-02-24T11:42:15;4.85;;;3.58;;
20462;SDS011;10390;53.566;9.980;2023-02-24T11:47:41;4.90;;;4.00;;
20462;SDS011;10390;53.566;9.980;2023-02-24T11:53:06;4.65;;;3.70;;
20462;SDS011;10390;53.566;9.980;2023-02-24T11:55:59;5.93;;;3.85;;
20462;SDS011;10390;53.566;9.980;2023-02-24T11:58:39;5.45;;;4.30;;
20462;SDS011;10390;53.566;9.980;2023-02-24T12:01:28;4.82;;;3.92;;
20462;SDS011;10390;53.566;9.980;2023-02-24T12:09:14;5.57;;;3.80;;
20462;SDS011;10390;53.566;9.980;2023-02-24T12:11:55;4.47;;;3.75;;
20462;SDS011;10390;53.566;9.980;2023-02-24T12:14:46;7.32;;;4.40;;
20462;SDS011;10390;53.566;9.980;2023-02-24T12:17:39;6.45;;;4.40;;
20462;SDS011;10390;53.566;9.980;2023-02-24T12:20:27;5.47;;;3.70;;
20462;SDS011;10390;53.566;9.980;2023-02-24T12:23:00;5.97;;;3.83;;
20462;SDS011;10390;53.566;9.980;2023-02-24T12:25:43;5.18;;;4.60;;
20462;SDS011;10390;53.566;9.980;2023-02-24T12:28:36;6.07;;;3.90;;
20462;SDS011;10390;53.566;9.980;2023-02-24T12:31:18;6.53;;;4.00;;
20462;SDS011;10390;53.566;9.980;2023-02-24T12:47:09;6.45;;;4.70;;
20462;SDS011;10390;53.566;9.980;2023-02-24T12:49:45;5.53;;;4.50;;
20462;SDS011;10390;53.566;9.980;2023-02-24T12:55:24;4.82;;;3.58;;
20462;SDS011;10390;53.566;9.980;2023-02-24T12:58:06;6.47;;;4.75;;
20462;SDS011;10390;53.566;9.980;2023-02-24T13:03:32;5.88;;;4.00;;
20462;SDS011;10390;53.566;9.980;2023-02-24T13:09:16;5.97;;;4.70;;
20462;SDS011;10390;53.566;9.980;2023-02-24T13:12:32;10.00;;;4.47;;
20462;SDS011;10390;53.566;9.980;2023-02-24T13:14:40;5.55;;;4.10;;
20462;SDS011;10390;53.566;9.980;2023-02-24T13:19:36;8.50;;;4.30;;
20462;SDS011;10390;53.566;9.980;2023-02-24T13:22:05;8.05;;;4.88;;
20462;SDS011;10390;53.566;9.980;2023-02-24T13:24:42;7.72;;;4.68;;
20462;SDS011;10390;53.566;9.980;2023-02-24T13:27:31;7.35;;;4.88;;
20462;SDS011;10390;53.566;9.980;2023-02-24T13:30:18;6.38;;;4.35;;
20462;SDS011;10390;53.566;9.980;2023-02-24T13:33:36;7.70;;;4.30;;
20462;SDS011;10390;53.566;9.980;2023-02-24T13:35:43;7.32;;;4.50;;
20462;SDS011;10390;53.566;9.980;2023-02-24T13:46:25;6.50;;;4.28;;
20462;SDS011;10390;53.566;9.980;2023-02-24T13:52:06;5.53;;;3.90;;
20462;SDS011;10390;53.566;9.980;2023-02-24T13:54:41;6.55;;;3.90;;
20462;SDS011;10390;53.566;9.980;2023-02-24T13:57:31;5.28;;;4.07;;
20462;SDS011;10390;53.566;9.980;2023-02-24T14:03:23;5.60;;;4.53;;
20462;SDS011;10390;53.566;9.980;2023-02-24T14:05:50;8.60;;;4.00;;
20462;SDS011;10390;53.566;9.980;2023-02-24T14:09:02;6.28;;;4.60;;
20462;SDS011;10390;53.566;9.980;2023-02-24T14:11:06;6.35;;;4.50;;
20462;SDS011;10390;53.566;9.980;2023-02-24T14:13:35;5.13;;;4.30;;
20462;SDS011;10390;53.566;9.980;2023-02-24T14:16:05;4.88;;;3.90;;
20462;SDS011;10390;53.566;9.980;2023-02-24T14:18:33;5.40;;;3.85;;
20462;SDS011;10390;53.566;9.980;2023-02-24T14:21:00;5.68;;;4.05;;
20462;SDS011;10390;53.566;9.980;2023-02-24T14:23:27;7.50;;;4.00;;
20462;SDS011;10390;53.566;9.980;2023-02-24T14:26:01;6.80;;;4.70;;
20462;SDS011;10390;53.566;9.980;2023-02-24T14:28:31;9.82;;;4.90;;
20462;SDS011;10390;53.566;9.980;2023-02-24T14:31:02;8.75;;;4.65;;
20462;SDS011;10390;53.566;9.980;2023-02-24T14:33:37;10.57;;;4.38;;
20462;SDS011;10390;53.566;9.980;2023-02-24T14:36:13;9.30;;;4.25;;
20462;SDS011;10390;53.566;9.980;2023-02-24T14:38:46;13.30;;;4.90;;
20462;SDS011;10390;53.566;9.980;2023-02-24T14:41:33;10.05;;;4.45;;
20462;SDS011;10390;53.566;9.980;2023-02-24T14:44:04;8.75;;;4.80;;
20462;SDS011;10390;53.566;9.980;2023-02-24T14:46:50;9.98;;;4.53;;
20462;SDS011;10390;53.566;9.980;2023-02-24T14:49:18;6.10;;;4.70;;
20462;SDS011;10390;53.566;9.980;2023-02-24T14:51:50;9.02;;;4.60;;
20462;SDS011;10390;53.566;9.980;2023-02-24T14:54:55;8.27;;;3.92;;
20462;SDS011;10390;53.566;9.980;2023-02-24T14:57:48;6.70;;;4.40;;
20462;SDS011;10390;53.566;9.980;2023-02-24T15:00:30;8.07;;;4.20;;
20462;SDS011;10390;53.566;9.980;2023-02-24T15:03:05;7.15;;;4.15;;
20462;SDS011;10390;53.566;9.980;2023-02-24T15:05:42;8.73;;;4.68;;
20462;SDS011;10390;53.566;9.980;2023-02-24T15:14:02;5.50;;;3.40;;
20462;SDS011;10390;53.566;9.980;2023-02-24T15:16:38;5.90;;;4.00;;
20462;SDS011;10390;53.566;9.980;2023-02-24T15:19:26;6.25;;;3.60;;
20462;SDS011;10390;53.566;9.980;2023-02-24T15:21:57;5.75;;;3.70;;
20462;SDS011;10390;53.566;9.980;2023-02-24T15:24:27;6.78;;;4.07;;
20462;SDS011;10390;53.566;9.980;2023-02-24T15:29:24;7.95;;;4.15;;
20462;SDS011;10390;53.566;9.980;2023-02-24T15:31:55;8.75;;;3.85;;
20462;SDS011;10390;53.566;9.980;2023-02-24T15:34:33;7.53;;;3.92;;
20462;SDS011;10390;53.566;9.980;2023-02-24T15:37:12;7.82;;;4.55;;
20462;SDS011;10390;53.566;9.980;2023-02-24T15:39:49;7.47;;;4.30;;
20462;SDS011;10390;53.566;9.980;2023-02-24T15:44:56;6.00;;;4.53;;
20462;SDS011;10390;53.566;9.980;2023-02-24T15:47:27;5.65;;;3.80;;
20462;SDS011;10390;53.566;9.980;2023-02-24T15:49:56;5.25;;;3.97;;
20462;SDS011;10390;53.566;9.980;2023-02-24T15:52:23;5.80;;;3.83;;
20462;SDS011;10390;53.566;9.980;2023-02-24T15:54:52;6.30;;;4.60;;
20462;SDS011;10390;53.566;9.980;2023-02-24T15:57:23;6.00;;;4.38;;
20462;SDS011;10390;53.566;9.980;2023-02-24T15:59:49;7.10;;;4.07;;
20462;SDS011;10390;53.566;9.980;2023-02-24T16:02:16;8.48;;;4.40;;
20462;SDS011;10390;53.566;9.980;2023-02-24T16:04:44;9.77;;;4.50;;
20462;SDS011;10390;53.566;9.980;2023-02-24T16:07:14;7.30;;;4.30;;
20462;SDS011;10390;53.566;9.980;2023-02-24T16:09:44;6.78;;;4.93;;
20462;SDS011;10390;53.566;9.980;2023-02-24T16:12:14;6.13;;;3.97;;
20462;SDS011;10390;53.566;9.980;2023-02-24T16:14:42;5.10;;;3.47;;
20462;SDS011;10390;53.566;9.980;2023-02-24T16:19:57;6.80;;;3.97;;
20462;SDS011;10390;53.566;9.980;2023-02-24T16:22:24;5.75;;;3.92;;
20462;SDS011;10390;53.566;9.980;2023-02-24T16:24:50;6.15;;;4.45;;
20462;SDS011;10390;53.566;9.980;2023-02-24T16:27:17;5.47;;;3.83;;
20462;SDS011;10390;53.566;9.980;2023-02-24T16:29:44;6.60;;;4.00;;
20462;SDS011;10390;53.566;9.980;2023-02-24T16:32:10;5.57;;;4.47;;
20462;SDS011;10390;53.566;9.980;2023-02-24T16:34:37;5.18;;;3.65;;
20462;SDS011;10390;53.566;9.980;2023-02-24T16:37:03;6.00;;;3.90;;
20462;SDS011;10390;53.566;9.980;2023-02-24T16:39:39;5.60;;;3.42;;
20462;SDS011;10390;53.566;9.980;2023-02-24T16:42:05;4.90;;;3.88;;
20462;SDS011;10390;53.566;9.980;2023-02-24T16:44:31;5.53;;;3.90;;
20462;SDS011;10390;53.566;9.980;2023-02-24T16:46:56;5.57;;;4.43;;
20462;SDS011;10390;53.566;9.980;2023-02-24T16:49:22;6.13;;;4.20;;
20462;SDS011;10390;53.566;9.980;2023-02-24T16:51:48;6.38;;;3.80;;
20462;SDS011;10390;53.566;9.980;2023-02-24T16:54:13;7.25;;;4.30;;
20462;SDS011;10390;53.566;9.980;2023-02-24T16:56:39;6.15;;;4.15;;
20462;SDS011;10390;53.566;9.980;2023-02-24T16:59:04;6.07;;;3.78;;
20462;SDS011;10390;53.566;9.980;2023-02-24T17:01:30;6.03;;;4.20;;
20462;SDS011;10390;53.566;9.980;2023-02-24T17:03:56;6.88;;;4.35;;
20462;SDS011;10390;53.566;9.980;2023-02-24T17:06:22;6.25;;;4.00;;
20462;SDS011;10390;53.566;9.980;2023-02-24T17:08:48;6.50;;;4.30;;
20462;SDS011;10390;53.566;9.980;2023-02-24T17:11:15;7.22;;;4.28;;
20462;SDS011;10390;53.566;9.980;2023-02-24T17:13:43;7.15;;;4.03;;
20462;SDS011;10390;53.566;9.980;2023-02-24T17:16:09;6.30;;;4.30;;
20462;SDS011;10390;53.566;9.980;2023-02-24T17:18:35;6.38;;;4.22;;
20462;SDS011;10390;53.566;9.980;2023-02-24T17:21:01;8.18;;;4.30;;
20462;SDS011;10390;53.566;9.980;2023-02-24T17:23:28;5.72;;;4.20;;
20462;SDS011;10390;53.566;9.980;2023-02-24T17:25:54;5.72;;;3.90;;
20462;SDS011;10390;53.566;9.980;2023-02-24T17:28:22;7.35;;;4.57;;
20462;SDS011;10390;53.566;9.980;2023-02-24T17:30:48;8.15;;;4.03;;
20462;SDS011;10390;53.566;9.980;2023-02-24T17:33:14;8.70;;;4.28;;
20462;SDS011;10390;53.566;9.980;2023-02-24T20:07:23;8.52;;;4.63;;
20462;SDS011;10390;53.566;9.980;2023-02-24T20:09:49;8.52;;;4.63;;
20462;SDS011;10390;53.566;9.980;2023-02-24T20:12:15;9.32;;;4.35;;